Time;durP1;ratioP1;P1;durP2;ratioP2;P2;SDS_P1;SDS_P2;PMS_P1;PMS_P2;Temp;Humidity;BMP_temperature;BMP_pressure;BME280_temperature;BME280_humidity;BME280_pressure;Samples;Min_cycle;Max_cycle;Signal;HPM_P1;HPM_P2
2021/08/16 00:01:11;;;;;;;6.20;2.72;;;;;;;21.97;40.95;100144.03;5088765;28;20024;-25
2021/08/16 00:03:36;;;;;;;4.85;2.53;;;;;;;21.94;40.97;100154.66;5088891;28;20031;-22
2021/08/16 00:06:02;;;;;;;5.68;2.60;;;;;;;21.79;41.44;100142.09;5088652;28;20040;-22
2021/08/16 00:08:27;;;;;;;5.90;2.90;;;;;;;22.01;41.04;100145.03;5088827;28;20035;-22
2021/08/16 00:10:53;;;;;;;7.55;3.10;;;;;;;22.02;41.17;100152.06;5088833;28;20024;-22
2021/08/16 00:13:20;;;;;;;7.25;3.33;;;;;;;21.74;41.73;100134.00;5088862;28;20032;-22
2021/08/16 00:15:46;;;;;;;4.60;2.67;;;;;;;21.70;42.30;100138.41;5088401;28;20028;-22
2021/08/16 00:18:11;;;;;;;6.15;3.00;;;;;;;21.83;41.80;100143.94;5088483;28;20574;-22
2021/08/16 00:20:37;;;;;;;6.78;2.72;;;;;;;21.96;41.45;100147.81;5088721;28;20043;-23
2021/08/16 00:23:02;;;;;;;6.38;2.78;;;;;;;22.26;40.58;100140.38;5088627;28;20054;-22
2021/08/16 00:25:28;;;;;;;5.18;2.72;;;;;;;22.22;40.69;100152.91;5089089;28;20036;-22
2021/08/16 00:27:53;;;;;;;8.25;3.25;;;;;;;21.97;41.79;100143.22;5088566;28;20028;-22
2021/08/16 00:30:19;;;;;;;8.07;3.17;;;;;;;21.89;41.77;100146.59;5070064;28;20033;-22
2021/08/16 00:32:45;;;;;;;6.50;3.13;;;;;;;21.73;41.57;100121.56;5088340;28;20729;-22
2021/08/16 00:35:10;;;;;;;6.47;3.10;;;;;;;21.69;41.80;100124.03;5088687;28;20028;-22
2021/08/16 00:37:36;;;;;;;6.10;3.15;;;;;;;21.60;42.20;100134.75;5088473;28;20035;-22
2021/08/16 00:40:01;;;;;;;6.80;3.13;;;;;;;21.43;42.59;100134.38;5088198;28;20039;-22
2021/08/16 00:42:27;;;;;;;6.95;3.67;;;;;;;21.32;43.15;100127.47;5088362;28;20028;-22
2021/08/16 00:44:52;;;;;;;5.85;3.00;;;;;;;21.33;43.10;100134.47;5070224;28;20036;-22
2021/08/16 00:47:18;;;;;;;5.45;3.30;;;;;;;21.33;42.92;100134.47;5088157;28;20058;-22
2021/08/16 00:49:43;;;;;;;7.07;3.20;;;;;;;21.36;42.99;100128.50;5088222;28;20173;-22
2021/08/16 00:52:09;;;;;;;6.85;3.00;;;;;;;21.11;43.52;100119.53;5087814;28;20039;-23
2021/08/16 00:54:34;;;;;;;6.85;3.05;;;;;;;20.90;43.91;100108.09;5070169;28;20055;-22
2021/08/16 00:57:04;;;;;;;7.13;3.42;;;;;;;20.99;44.28;100113.72;5070241;28;20109;-22
2021/08/16 00:59:30;;;;;;;8.27;3.30;;;;;;;20.95;43.79;100124.31;5042568;28;1315129;-22
2021/08/16 01:01:55;;;;;;;7.43;3.50;;;;;;;21.29;43.79;100134.28;5088957;28;20071;-22
2021/08/16 01:04:21;;;;;;;9.88;3.40;;;;;;;21.82;42.04;100119.78;5088810;28;20031;-22
2021/08/16 01:06:47;;;;;;;6.38;3.30;;;;;;;21.11;43.88;100119.53;5089011;28;20467;-22
2021/08/16 01:09:13;;;;;;;7.43;3.20;;;;;;;20.99;44.80;100119.94;5071179;28;20028;-22
2021/08/16 01:11:39;;;;;;;6.25;3.22;;;;;;;20.43;46.06;100118.53;5070770;28;20024;-22
2021/08/16 01:14:04;;;;;;;7.38;3.65;;;;;;;20.75;45.41;100141.56;5088632;28;20039;-22
2021/08/16 01:16:30;;;;;;;9.43;3.75;;;;;;;21.07;44.75;100137.50;5088739;28;20480;-22
2021/08/16 01:18:55;;;;;;;6.93;3.72;;;;;;;21.34;43.90;100131.50;5088909;28;20028;-22
2021/08/16 01:21:21;;;;;;;8.68;3.22;;;;;;;21.17;44.22;100142.81;5088731;28;20032;-22
2021/08/16 01:23:46;;;;;;;6.97;3.28;;;;;;;20.73;45.56;100143.75;5088635;28;20039;-22
2021/08/16 01:26:12;;;;;;;6.53;3.38;;;;;;;20.87;45.20;100147.41;5088406;28;20028;-22
2021/08/16 01:28:38;;;;;;;8.32;3.58;;;;;;;21.13;45.07;100139.06;5087793;28;20020;-22
2021/08/16 01:31:05;;;;;;;6.72;3.60;;;;;;;21.13;44.81;100146.38;5088376;28;20484;-23
2021/08/16 01:33:30;;;;;;;7.05;3.35;;;;;;;20.81;45.37;100140.44;5088409;28;20028;-22
2021/08/16 01:35:56;;;;;;;7.38;3.53;;;;;;;21.14;45.40;100137.94;5088243;28;20039;-22
2021/08/16 01:38:25;;;;;;;7.93;3.00;;;;;;;21.26;43.92;100124.78;5088076;28;20593;-22
2021/08/16 01:40:51;;;;;;;6.03;3.22;;;;;;;21.56;43.80;100144.56;5088605;28;20480;-22
2021/08/16 01:43:16;;;;;;;6.25;3.33;;;;;;;21.07;45.17;100137.50;5088244;28;20036;-22
2021/08/16 01:45:42;;;;;;;5.63;3.13;;;;;;;20.65;46.28;100144.38;5070088;28;20036;-22
2021/08/16 01:48:07;;;;;;;8.43;3.50;;;;;;;20.67;45.93;100139.47;5087811;28;20031;-22
2021/08/16 01:50:33;;;;;;;7.63;3.08;;;;;;;21.22;44.51;100133.78;5087927;28;20032;-22
2021/08/16 01:52:58;;;;;;;6.50;3.35;;;;;;;21.41;44.26;100141.97;5088495;28;20043;-22
2021/08/16 01:55:24;;;;;;;6.68;3.28;;;;;;;21.30;45.10;100125.03;5088221;28;20032;-22
2021/08/16 01:57:50;;;;;;;7.32;4.07;;;;;;;21.37;45.54;100133.63;5087796;28;20044;-22
2021/08/16 02:00:15;;;;;;;10.15;3.22;;;;;;;21.57;45.08;100135.31;5087710;28;20504;-22
2021/08/16 02:02:41;;;;;;;7.95;3.63;;;;;;;21.69;44.98;100137.59;5087983;28;20039;-22
2021/08/16 02:05:07;;;;;;;6.25;3.40;;;;;;;21.47;45.59;100146.28;5069927;28;20094;-22
2021/08/16 02:07:32;;;;;;;7.88;3.38;;;;;;;21.48;45.62;100134.34;5087855;28;20377;-22
2021/08/16 02:09:58;;;;;;;11.52;3.85;;;;;;;21.61;44.19;100125.47;5087739;28;20024;-22
2021/08/16 02:12:23;;;;;;;6.70;3.40;;;;;;;21.34;45.91;100122.56;5087654;28;20043;-22
2021/08/16 02:14:49;;;;;;;10.07;3.45;;;;;;;21.55;43.96;100137.50;5087554;28;20032;-22
2021/08/16 02:17:14;;;;;;;16.45;5.15;;;;;;;20.40;47.87;100135.31;5087838;28;20032;-22
2021/08/16 02:19:40;;;;;;;9.30;4.30;;;;;;;20.05;47.73;100136.38;5087690;28;20032;-22
2021/08/16 02:22:05;;;;;;;7.63;3.38;;;;;;;20.10;47.87;100122.00;5069154;28;20042;-22
2021/08/16 02:24:31;;;;;;;9.75;4.00;;;;;;;20.44;47.87;100139.09;5087535;28;20411;-22
2021/08/16 02:26:56;;;;;;;8.98;3.97;;;;;;;20.47;47.97;100135.84;5087601;28;20032;-22
2021/08/16 02:29:22;;;;;;;12.88;3.97;;;;;;;20.61;47.74;100140.63;5087496;28;20035;-22
2021/08/16 02:31:47;;;;;;;13.63;3.85;;;;;;;20.91;47.04;100138.72;5087434;28;20085;-22
2021/08/16 02:34:13;;;;;;;14.75;4.30;;;;;;;20.90;47.68;100147.94;5087166;28;20034;-22
2021/08/16 02:36:38;;;;;;;11.80;4.30;;;;;;;21.28;46.81;100144.28;5087370;28;20056;-22
2021/08/16 02:39:04;;;;;;;12.40;3.65;;;;;;;21.53;46.39;100155.19;5087453;28;20031;-22
2021/08/16 02:41:29;;;;;;;12.25;3.63;;;;;;;21.20;46.28;100149.53;5087520;28;20043;-22
2021/08/16 02:43:55;;;;;;;10.32;4.22;;;;;;;21.05;46.22;100145.91;5087186;28;20036;-22
2021/08/16 02:46:20;;;;;;;13.90;5.15;;;;;;;20.75;45.54;100135.34;5087104;28;20040;-22
2021/08/16 02:48:46;;;;;;;11.73;5.13;;;;;;;20.31;46.14;100147.03;5087332;28;20035;-22
2021/08/16 02:51:12;;;;;;;12.30;5.45;;;;;;;20.35;48.87;100151.63;5086991;28;20108;-22
2021/08/16 02:53:37;;;;;;;21.60;6.20;;;;;;;20.25;48.87;100141.66;5087269;28;20028;-22
2021/08/16 02:56:03;;;;;;;20.20;6.07;;;;;;;20.31;48.68;100128.09;5087153;28;20055;-22
2021/08/16 02:58:28;;;;;;;11.48;5.75;;;;;;;19.87;50.21;100145.97;5087023;28;20044;-22
2021/08/16 03:00:54;;;;;;;12.27;5.28;;;;;;;20.19;49.32;100133.88;5087052;28;20032;-22
2021/08/16 03:03:19;;;;;;;58.65;9.40;;;;;;;20.31;47.96;100147.88;5087274;28;20036;-23
2021/08/16 03:05:45;;;;;;;13.23;6.82;;;;;;;19.61;48.34;100140.63;5087322;28;20036;-22
2021/08/16 03:08:10;;;;;;;14.35;7.05;;;;;;;19.59;49.95;100129.28;5086958;28;20032;-22
2021/08/16 03:10:36;;;;;;;17.40;7.85;;;;;;;19.43;50.76;100125.00;5087066;28;20023;-22
2021/08/16 03:13:01;;;;;;;14.93;6.25;;;;;;;19.99;49.17;100141.03;5087060;28;20032;-22
2021/08/16 03:15:27;;;;;;;13.75;6.75;;;;;;;20.42;48.26;100148.59;5087093;28;20400;-22
2021/08/16 03:17:52;;;;;;;23.90;7.38;;;;;;;20.48;49.28;100150.19;5087017;28;20448;-22
2021/08/16 03:20:18;;;;;;;28.85;5.95;;;;;;;20.50;47.41;100136.34;5086789;28;20028;-22
2021/08/16 03:22:43;;;;;;;20.38;5.95;;;;;;;19.78;49.37;100150.34;5087057;28;20028;-22
2021/08/16 03:25:10;;;;;;;18.67;5.97;;;;;;;20.12;48.25;100145.00;5086869;28;20032;-22
2021/08/16 03:27:36;;;;;;;24.98;6.18;;;;;;;20.02;49.89;100145.88;5086703;28;20047;-22
2021/08/16 03:30:03;;;;;;;16.80;5.20;;;;;;;19.43;50.59;100149.34;5086621;28;20024;-22
2021/08/16 03:32:29;;;;;;;10.17;5.13;;;;;;;19.59;50.55;100142.78;5086851;28;20032;-22
2021/08/16 03:34:54;;;;;;;18.33;5.30;;;;;;;19.75;49.84;100148.97;5086559;28;20443;-22
2021/08/16 03:37:20;;;;;;;13.00;4.88;;;;;;;19.60;48.79;100154.44;5068590;28;20388;-22
2021/08/16 03:39:45;;;;;;;15.18;5.35;;;;;;;19.49;49.57;100164.47;5086250;28;20038;-22
2021/08/16 03:42:11;;;;;;;22.83;5.05;;;;;;;19.41;51.32;100162.34;5086255;28;20488;-22
2021/08/16 03:44:36;;;;;;;14.88;5.32;;;;;;;18.90;49.64;100146.22;5087248;28;20040;-22
2021/08/16 03:47:02;;;;;;;22.38;6.25;;;;;;;19.56;50.70;100162.31;5086657;28;20031;-22
2021/08/16 03:49:27;;;;;;;22.77;6.97;;;;;;;19.60;48.74;100155.25;5086538;28;20032;-22
2021/08/16 03:51:53;;;;;;;23.15;5.68;;;;;;;19.58;50.07;100173.66;5089548;28;20020;-22
2021/08/16 03:54:18;;;;;;;14.82;5.35;;;;;;;19.68;50.07;100160.09;5090232;28;20036;-22
2021/08/16 03:56:43;;;;;;;11.63;4.93;;;;;;;19.88;49.53;100147.59;5090149;28;20028;-22
2021/08/16 03:59:09;;;;;;;8.65;4.53;;;;;;;20.06;49.05;100157.78;5090126;28;20508;-22
2021/08/16 04:01:34;;;;;;;9.77;4.80;;;;;;;19.96;49.51;100144.31;5090062;28;20024;-22
2021/08/16 04:04:01;;;;;;;11.43;4.47;;;;;;;20.56;47.84;100170.44;5090217;28;20032;-22
2021/08/16 04:06:27;;;;;;;6.77;4.43;;;;;;;20.18;48.83;100154.69;5090296;28;20039;-22
2021/08/16 04:08:53;;;;;;;11.00;4.97;;;;;;;20.45;48.48;100159.69;5090129;28;20399;-22
2021/08/16 04:11:19;;;;;;;8.50;4.80;;;;;;;20.39;48.46;100149.97;5090031;28;20506;-22
2021/08/16 04:13:44;;;;;;;11.95;4.72;;;;;;;20.42;48.49;100152.09;5090206;28;20039;-22
2021/08/16 04:16:09;;;;;;;9.38;4.60;;;;;;;20.21;49.21;100161.47;5089893;28;20453;-22
2021/08/16 04:18:36;;;;;;;10.15;4.55;;;;;;;20.24;48.84;100148.16;5089838;28;20059;-22
2021/08/16 04:21:03;;;;;;;10.85;4.70;;;;;;;20.55;48.50;100171.53;5089912;28;20032;-22
2021/08/16 04:23:28;;;;;;;8.20;4.20;;;;;;;19.68;50.41;100162.00;5090106;28;20047;-22
2021/08/16 04:25:54;;;;;;;11.27;4.75;;;;;;;19.89;49.85;100165.44;5089738;28;20040;-23
2021/08/16 04:28:19;;;;;;;8.02;4.65;;;;;;;20.19;49.30;100171.78;5089666;28;20381;-22
2021/08/16 04:30:45;;;;;;;7.70;4.75;;;;;;;20.37;48.96;100170.28;5089743;28;20028;-22
2021/08/16 04:33:11;;;;;;;9.07;4.60;;;;;;;20.03;49.85;100174.56;5089653;28;20108;-22
2021/08/16 04:35:37;;;;;;;7.97;4.45;;;;;;;20.19;49.59;100172.59;5090046;28;20031;-22
2021/08/16 04:38:03;;;;;;;9.98;4.68;;;;;;;19.98;49.62;100150.25;5089319;28;20024;-22
2021/08/16 04:40:28;;;;;;;9.35;4.90;;;;;;;20.25;49.12;100160.63;5089311;28;20028;-22
2021/08/16 04:42:54;;;;;;;11.27;4.35;;;;;;;20.49;48.97;100170.75;5071644;28;20067;-22
2021/08/16 04:45:19;;;;;;;8.43;4.70;;;;;;;20.46;49.36;100169.41;5089297;28;20028;-22
2021/08/16 04:47:45;;;;;;;9.15;4.75;;;;;;;20.33;49.37;100151.09;5089282;28;20034;-22
2021/08/16 04:50:11;;;;;;;7.85;4.75;;;;;;;20.61;48.96;100168.50;5089068;28;20024;-22
2021/08/16 04:52:36;;;;;;;11.02;5.03;;;;;;;21.06;47.54;100184.66;5089367;28;20031;-22
2021/08/16 04:55:02;;;;;;;9.07;5.03;;;;;;;21.12;47.41;100183.50;5089277;28;20024;-22
2021/08/16 04:57:29;;;;;;;8.10;4.78;;;;;;;21.30;47.31;100181.19;5089079;28;20032;-22
2021/08/16 04:59:54;;;;;;;10.23;5.65;;;;;;;21.43;46.64;100178.63;5089181;28;20028;-22
2021/08/16 05:02:20;;;;;;;11.20;5.57;;;;;;;21.58;45.85;100165.97;5087607;28;20043;-22
2021/08/16 05:04:46;;;;;;;11.77;5.90;;;;;;;21.69;45.65;100182.94;5089556;28;20132;-22
2021/08/16 05:07:12;;;;;;;12.27;5.80;;;;;;;21.57;46.49;100173.28;5089037;28;20031;-22
2021/08/16 05:09:38;;;;;;;10.32;5.45;;;;;;;21.44;46.21;100182.16;5088737;28;20506;-22
2021/08/16 05:12:03;;;;;;;10.55;5.05;;;;;;;21.59;46.05;100187.38;5088642;28;20035;-22
2021/08/16 05:14:29;;;;;;;9.30;5.20;;;;;;;21.78;46.20;100194.75;5089089;28;20438;-22
2021/08/16 05:16:54;;;;;;;9.77;3.97;;;;;;;21.61;47.08;100193.31;5088793;28;20031;-22
2021/08/16 05:19:20;;;;;;;9.50;4.20;;;;;;;21.93;46.22;100191.84;5088844;28;20032;-23
2021/08/16 05:21:45;;;;;;;7.15;4.40;;;;;;;21.84;46.29;100204.44;5088636;28;20032;-22
2021/08/16 05:24:11;;;;;;;8.95;3.83;;;;;;;22.13;45.72;100200.81;5088626;28;20053;-22
2021/08/16 05:26:36;;;;;;;7.70;3.83;;;;;;;22.16;45.52;100195.63;5088496;28;20050;-23
2021/08/16 05:29:02;;;;;;;8.38;3.78;;;;;;;22.30;45.45;100192.22;5088341;28;20024;-23
2021/08/16 05:31:27;;;;;;;6.10;3.60;;;;;;;22.07;46.39;100181.91;5088316;28;20085;-22
2021/08/16 05:33:53;;;;;;;6.15;3.70;;;;;;;21.91;44.83;100183.19;5088436;28;20032;-22
2021/08/16 05:36:18;;;;;;;6.57;3.78;;;;;;;22.29;44.62;100177.81;5088223;28;20036;-22
2021/08/16 05:38:45;;;;;;;7.50;4.18;;;;;;;22.42;44.88;100189.84;5088451;28;20131;-22
2021/08/16 05:41:11;;;;;;;10.32;3.53;;;;;;;22.56;44.51;100181.78;5088505;28;20028;-22
2021/08/16 05:43:36;;;;;;;10.88;4.88;;;;;;;22.34;44.95;100188.59;5088571;28;20039;-23
2021/08/16 05:46:02;;;;;;;8.32;4.10;;;;;;;22.39;44.78;100188.53;5087875;28;20385;-22
2021/08/16 05:48:27;;;;;;;9.30;3.92;;;;;;;22.40;43.63;100190.16;5088185;28;20032;-22
2021/08/16 05:50:53;;;;;;;10.43;5.43;;;;;;;22.27;43.86;100188.97;5088308;28;20476;-22
2021/08/16 05:53:18;;;;;;;8.20;4.15;;;;;;;22.65;42.99;100185.41;5088237;28;20032;-23
2021/08/16 05:55:44;;;;;;;13.60;8.60;;;;;;;22.92;42.64;100190.13;5088080;28;20024;-22
2021/08/16 05:58:10;;;;;;;52.60;34.20;;;;;;;23.08;42.90;100192.63;5087624;28;20419;-22
2021/08/16 06:00:35;;;;;;;8.00;4.15;;;;;;;23.22;41.48;100188.00;5087842;28;20123;-22
2021/08/16 06:03:01;;;;;;;8.98;4.93;;;;;;;23.31;41.62;100179.94;5087961;28;20678;-23
2021/08/16 06:05:26;;;;;;;8.48;4.03;;;;;;;23.49;40.89;100187.22;5087642;28;20024;-23
2021/08/16 06:07:52;;;;;;;6.47;3.60;;;;;;;23.47;39.91;100173.09;5087767;28;20480;-23
2021/08/16 06:10:17;;;;;;;6.75;3.55;;;;;;;23.23;40.13;100178.72;5087249;28;20088;-22
2021/08/16 06:12:43;;;;;;;7.50;3.63;;;;;;;23.43;39.85;100175.59;5087510;28;20043;-22
2021/08/16 06:15:09;;;;;;;8.60;4.63;;;;;;;23.54;39.86;100165.34;5087051;28;20032;-22
2021/08/16 06:17:37;;;;;;;7.43;4.03;;;;;;;23.70;40.14;100175.91;5087745;28;20555;-22
2021/08/16 06:20:04;;;;;;;8.23;3.80;;;;;;;23.81;38.90;100177.34;5087033;28;20407;-22
2021/08/16 06:22:30;;;;;;;7.95;3.42;;;;;;;23.95;39.08;100182.78;5087372;28;20103;-23
2021/08/16 06:24:56;;;;;;;6.85;3.60;;;;;;;24.15;38.78;100176.06;5087453;28;20020;-22
2021/08/16 06:27:21;;;;;;;7.82;4.00;;;;;;;24.42;38.60;100178.69;5087707;28;20054;-22
2021/08/16 06:29:47;;;;;;;6.95;3.95;;;;;;;24.64;38.77;100179.84;5087290;28;20032;-23
2021/08/16 06:32:12;;;;;;;8.52;3.80;;;;;;;24.57;39.13;100188.44;5069280;28;20040;-22
2021/08/16 06:34:41;;;;;;;17.23;10.30;;;;;;;24.74;39.18;100193.22;5087565;28;20040;-23
2021/08/16 06:37:06;;;;;;;6.70;3.60;;;;;;;24.29;37.64;100170.56;5087065;28;20035;-22
2021/08/16 06:39:32;;;;;;;5.82;3.50;;;;;;;24.56;37.85;100183.31;5087309;28;20028;-22
2021/08/16 06:41:57;;;;;;;13.30;8.35;;;;;;;24.89;38.83;100174.84;5087394;28;20078;-22
2021/08/16 06:44:23;;;;;;;12.00;4.40;;;;;;;24.79;37.77;100171.28;5086887;28;20089;-22
2021/08/16 06:46:49;;;;;;;7.00;3.63;;;;;;;25.01;37.42;100164.19;5087424;28;20125;-22
2021/08/16 06:49:14;;;;;;;7.57;3.88;;;;;;;25.02;38.12;100176.72;5087218;28;20036;-22
2021/08/16 06:51:40;;;;;;;8.02;4.10;;;;;;;25.08;37.09;100180.13;5087209;28;20032;-22
2021/08/16 06:54:06;;;;;;;8.38;4.60;;;;;;;24.89;37.07;100159.31;5087001;28;20028;-21
2021/08/16 06:56:31;;;;;;;8.82;4.45;;;;;;;24.94;37.96;100158.38;5087118;28;20031;-22
2021/08/16 06:58:57;;;;;;;7.75;4.18;;;;;;;25.07;36.82;100165.66;5087165;28;20481;-22
2021/08/16 07:01:24;;;;;;;9.05;4.28;;;;;;;25.44;36.66;100177.25;5087261;28;20028;-22
2021/08/16 07:03:49;;;;;;;8.95;4.22;;;;;;;25.40;36.40;100171.59;5087047;28;20392;-22
2021/08/16 07:06:15;;;;;;;8.43;3.92;;;;;;;25.60;35.82;100170.22;5086704;28;20028;-22
2021/08/16 07:08:40;;;;;;;13.73;4.45;;;;;;;25.81;36.32;100175.09;5087211;28;20068;-22
2021/08/16 07:11:06;;;;;;;7.93;3.72;;;;;;;25.74;36.60;100163.81;5087053;28;20089;-22
2021/08/16 07:13:31;;;;;;;12.55;6.68;;;;;;;25.67;37.06;100170.56;5086892;28;20422;-22
2021/08/16 07:15:57;;;;;;;7.40;4.22;;;;;;;25.71;36.24;100178.94;5087080;28;20036;-22
2021/08/16 07:18:22;;;;;;;6.72;3.40;;;;;;;25.71;36.44;100165.28;5087029;28;20036;-22
2021/08/16 07:20:48;;;;;;;12.43;4.20;;;;;;;26.02;37.11;100175.31;5086888;28;20036;-22
2021/08/16 07:23:13;;;;;;;8.93;3.75;;;;;;;25.99;35.66;100176.75;5086927;28;20028;-22
2021/08/16 07:25:39;;;;;;;7.82;3.85;;;;;;;25.92;35.39;100157.28;5087447;28;20465;-22
2021/08/16 07:28:05;;;;;;;9.52;4.32;;;;;;;26.19;35.58;100180.78;5090547;28;20115;-22
2021/08/16 07:30:30;;;;;;;8.20;4.15;;;;;;;26.56;35.71;100178.53;5090605;28;20035;-22
2021/08/16 07:32:55;;;;;;;7.88;3.97;;;;;;;26.68;35.04;100180.63;5090978;28;20040;-22
2021/08/16 07:35:21;;;;;;;8.63;3.95;;;;;;;26.65;35.71;100173.09;5090857;28;20518;-22
2021/08/16 07:37:47;;;;;;;5.95;3.53;;;;;;;26.68;34.72;100166.94;5090653;28;20089;-23
2021/08/16 07:40:12;;;;;;;9.93;4.03;;;;;;;26.92;34.88;100182.03;5090413;28;20102;-22
2021/08/16 07:42:39;;;;;;;9.52;3.58;;;;;;;27.05;34.55;100178.28;5090602;28;20119;-22
2021/08/16 07:45:05;;;;;;;6.82;3.80;;;;;;;27.33;34.37;100169.69;5090976;28;20570;-22
2021/08/16 07:47:31;;;;;;;8.18;4.15;;;;;;;27.15;33.55;100166.97;5090898;28;20028;-22
2021/08/16 07:49:56;;;;;;;8.25;4.18;;;;;;;27.00;34.45;100173.00;5090420;28;20043;-22
2021/08/16 07:52:22;;;;;;;7.43;4.20;;;;;;;27.08;34.12;100169.44;5090180;28;20032;-22
2021/08/16 07:54:47;;;;;;;6.35;4.20;;;;;;;27.24;34.29;100165.03;5090456;28;20035;-23
2021/08/16 07:57:13;;;;;;;7.38;4.05;;;;;;;27.56;32.43;100165.53;5090309;28;20910;-22
2021/08/16 07:59:38;;;;;;;8.27;4.45;;;;;;;28.03;32.67;100164.59;5090219;28;20060;-22
2021/08/16 08:02:04;;;;;;;10.57;4.70;;;;;;;28.10;32.86;100164.09;5090086;28;20035;-22
2021/08/16 08:04:29;;;;;;;7.20;4.00;;;;;;;28.20;32.26;100164.50;5090619;28;20411;-22
2021/08/16 08:06:55;;;;;;;6.82;3.88;;;;;;;27.92;32.21;100158.72;5089962;28;20028;-21
2021/08/16 08:09:21;;;;;;;10.13;4.47;;;;;;;27.88;32.15;100166.00;5090182;28;20051;-22
2021/08/16 08:11:46;;;;;;;8.50;4.25;;;;;;;28.26;31.85;100167.84;5071793;28;20059;-22
2021/08/16 08:14:12;;;;;;;8.75;4.22;;;;;;;28.44;32.42;100155.56;5089839;28;20121;-22
2021/08/16 08:16:38;;;;;;;9.02;4.32;;;;;;;28.29;32.29;100163.59;5090197;28;20039;-22
2021/08/16 08:19:03;;;;;;;7.47;4.63;;;;;;;28.48;31.57;100157.63;5090047;28;20039;-22
2021/08/16 08:21:29;;;;;;;8.00;4.95;;;;;;;28.76;31.27;100155.91;5089579;28;20047;-22
2021/08/16 08:23:54;;;;;;;10.13;4.30;;;;;;;28.83;32.44;100158.91;5090233;28;20036;-22
2021/08/16 08:26:19;;;;;;;9.65;4.43;;;;;;;28.36;32.12;100153.72;5089509;28;20036;-22
2021/08/16 08:28:45;;;;;;;9.02;4.57;;;;;;;28.83;31.92;100150.69;5089943;28;20028;-22
2021/08/16 08:31:10;;;;;;;8.07;4.90;;;;;;;29.00;30.81;100154.38;5089733;28;20032;-22
2021/08/16 08:33:37;;;;;;;6.45;4.28;;;;;;;29.22;31.56;100142.97;5089748;28;20471;-22
2021/08/16 08:36:03;;;;;;;8.48;4.65;;;;;;;29.13;30.43;100146.97;5071010;28;20032;-23
2021/08/16 08:38:28;;;;;;;6.90;4.60;;;;;;;29.23;31.38;100146.50;5089335;28;20089;-22
2021/08/16 08:40:56;;;;;;;8.52;4.47;;;;;;;29.35;30.90;100148.47;5089246;28;20081;-22
2021/08/16 08:43:22;;;;;;;8.80;4.53;;;;;;;29.41;30.49;100147.09;5054590;28;20051;-22
2021/08/16 08:45:47;;;;;;;7.65;4.53;;;;;;;29.58;29.21;100138.59;5071430;28;20028;-22
2021/08/16 08:48:17;;;;;;;8.73;4.38;;;;;;;29.90;29.30;100140.75;5070930;28;20040;-21
2021/08/16 08:50:42;;;;;;;7.30;4.60;;;;;;;29.84;29.51;100134.69;5089053;28;20021;-22
2021/08/16 08:53:08;;;;;;;5.53;4.00;;;;;;;30.26;27.66;100123.34;5089562;28;20400;-22
2021/08/16 08:55:33;;;;;;;8.15;4.30;;;;;;;30.56;27.14;100122.97;5089357;28;20060;-22
2021/08/16 08:58:00;;;;;;;7.65;4.80;;;;;;;30.61;27.28;100120.78;5088891;28;20056;-22
2021/08/16 09:00:26;;;;;;;10.20;4.97;;;;;;;30.64;28.27;100105.50;5088881;28;20450;-22
2021/08/16 09:02:58;;;;;;;8.68;4.47;;;;;;;30.81;29.26;100113.44;5088911;28;20063;-22
2021/08/16 09:05:24;;;;;;;8.52;4.63;;;;;;;30.77;28.33;100101.53;5089101;28;20081;-22
2021/08/16 09:07:50;;;;;;;8.20;4.82;;;;;;;30.57;27.10;100091.56;5088926;28;20036;-22
2021/08/16 09:10:15;;;;;;;6.00;4.10;;;;;;;30.73;28.48;100100.63;5088591;28;20093;-22
2021/08/16 09:12:41;;;;;;;10.38;4.70;;;;;;;31.15;27.27;100093.81;5088968;28;20040;-22
2021/08/16 09:15:14;;;;;;;7.60;4.40;;;;;;;31.59;26.37;100091.69;5089200;28;20077;-22
2021/08/16 09:17:40;;;;;;;7.47;4.47;;;;;;;31.61;26.61;100102.38;5088709;28;20096;-22
2021/08/16 09:20:22;;;;;;;8.77;4.95;;;;;;;31.64;26.99;100083.13;5088630;28;20450;-22
2021/08/16 09:22:59;;;;;;;8.82;4.38;;;;;;;31.87;26.15;100090.69;5088553;28;20039;-22
2021/08/16 09:25:26;;;;;;;6.60;4.30;;;;;;;32.37;25.10;100096.44;5070859;28;20748;-22
2021/08/16 09:27:51;;;;;;;7.85;4.60;;;;;;;31.99;25.91;100079.53;5088648;28;20040;-22
2021/08/16 09:30:17;;;;;;;6.32;3.90;;;;;;;32.43;24.45;100090.22;5088316;28;20118;-22
2021/08/16 09:32:43;;;;;;;8.57;4.38;;;;;;;32.53;24.94;100076.97;5070290;28;20032;-22
2021/08/16 09:35:12;;;;;;;7.57;4.32;;;;;;;32.18;24.05;100066.88;5088353;28;20511;-22
2021/08/16 09:37:39;;;;;;;6.82;4.32;;;;;;;32.58;25.13;100079.47;5088343;28;20411;-22
2021/08/16 09:40:06;;;;;;;8.15;4.43;;;;;;;32.94;25.16;100080.88;5088118;28;20031;-22
2021/08/16 09:42:41;;;;;;;9.52;4.75;;;;;;;33.12;24.71;100064.59;5088325;28;20039;-21
2021/08/16 09:45:07;;;;;;;8.18;4.75;;;;;;;33.16;24.16;100065.47;5088528;28;20028;-22
2021/08/16 09:47:41;;;;;;;6.80;4.45;;;;;;;33.31;24.47;100071.19;5088231;28;20415;-22
2021/08/16 09:50:06;;;;;;;7.65;4.03;;;;;;;33.43;22.00;100069.00;5087301;28;20030;-22
2021/08/16 09:52:33;;;;;;;7.63;4.18;;;;;;;33.35;22.65;100050.72;5088187;28;20028;-22
2021/08/16 09:54:58;;;;;;;6.60;3.72;;;;;;;33.50;22.78;100051.69;5088315;28;20415;-21
2021/08/16 09:57:24;;;;;;;7.78;4.22;;;;;;;33.42;22.22;100056.31;5087574;28;20120;-22
2021/08/16 09:59:49;;;;;;;7.60;4.53;;;;;;;33.25;23.90;100045.06;5088100;28;20797;-22
2021/08/16 10:02:15;;;;;;;8.98;4.80;;;;;;;33.11;23.59;100043.66;5069494;28;20028;-22
2021/08/16 10:04:40;;;;;;;6.20;3.90;;;;;;;33.69;22.66;100045.25;5087960;28;20392;-22
2021/08/16 10:07:07;;;;;;;7.03;4.38;;;;;;;33.93;24.47;100041.19;5087885;28;20082;-22
2021/08/16 10:09:32;;;;;;;6.82;4.03;;;;;;;34.01;21.83;100048.38;5070192;28;20050;-22
2021/08/16 10:11:58;;;;;;;5.43;4.07;;;;;;;34.19;22.47;100042.28;5053115;28;20840;-21
2021/08/16 10:14:26;;;;;;;7.53;4.38;;;;;;;34.44;21.01;100038.97;5087553;28;20055;-22
2021/08/16 10:16:53;;;;;;;6.65;4.07;;;;;;;34.52;20.47;100026.78;5053394;28;20032;-22
2021/08/16 10:19:20;;;;;;;6.03;4.00;;;;;;;34.40;20.97;100036.94;5069721;28;20032;-22
2021/08/16 10:21:45;;;;;;;8.15;4.30;;;;;;;34.56;20.57;100025.63;5069932;28;20077;-22
2021/08/16 10:24:18;;;;;;;7.88;4.05;;;;;;;35.08;18.29;100019.28;5087478;28;20039;-22
2021/08/16 10:26:53;;;;;;;5.55;3.80;;;;;;;35.11;19.77;100016.53;5087729;28;20020;-22
2021/08/16 10:29:19;;;;;;;8.32;3.63;;;;;;;35.03;19.72;100020.44;5087909;28;20032;-22
2021/08/16 10:31:50;;;;;;;6.70;3.40;;;;;;;35.57;18.66;100018.78;5087652;28;20035;-22
2021/08/16 10:34:24;;;;;;;7.65;4.25;;;;;;;35.61;18.80;100002.94;5087333;28;20054;-21
2021/08/16 10:36:57;;;;;;;6.93;3.67;;;;;;;35.65;19.08;100016.00;5087520;28;20115;-22
2021/08/16 10:39:47;;;;;;;5.10;3.50;;;;;;;35.05;17.83;100020.84;5087831;28;20043;-22
2021/08/16 10:42:14;;;;;;;6.50;3.50;;;;;;;35.41;18.00;99996.09;5069233;28;20039;-22
2021/08/16 10:44:44;;;;;;;4.53;3.28;;;;;;;35.36;18.10;100002.03;5087340;28;20122;-22
2021/08/16 10:47:11;;;;;;;5.75;3.50;;;;;;;34.88;17.36;99994.63;5087249;28;20555;-21
2021/08/16 10:49:38;;;;;;;4.82;3.17;;;;;;;35.28;18.03;99997.63;5087416;28;20047;-22
2021/08/16 10:52:04;;;;;;;;;;;;;;;35.23;18.30;99993.28;5087288;28;20065;-22
2021/08/16 10:54:31;;;;;;;6.53;3.63;;;;;;;35.55;19.40;99976.78;5087307;28;19916;-22
2021/08/16 10:56:57;;;;;;;6.07;3.42;;;;;;;35.65;17.61;99971.63;5087458;28;20036;-22
2021/08/16 10:59:25;;;;;;;6.70;3.28;;;;;;;34.91;17.98;99970.88;5087187;28;20048;-22
2021/08/16 11:01:50;;;;;;;7.95;3.72;;;;;;;34.90;18.54;99969.28;5091393;28;20060;-22
2021/08/16 11:04:26;;;;;;;8.55;3.97;;;;;;;35.20;18.49;99952.47;5091470;28;20032;-22
2021/08/16 11:06:53;;;;;;;6.75;3.78;;;;;;;35.92;17.95;99967.38;5091375;28;20055;-22
2021/08/16 11:09:23;;;;;;;5.32;3.42;;;;;;;36.15;17.47;99938.47;5091380;28;20036;-22
2021/08/16 11:11:52;;;;;;;6.35;3.53;;;;;;;35.34;17.90;99969.16;5091632;28;20028;-22
2021/08/16 11:14:22;;;;;;;6.32;3.50;;;;;;;35.80;17.02;99953.88;5090707;28;20036;-21
2021/08/16 11:16:48;;;;;;;5.32;3.10;;;;;;;36.32;16.57;99956.31;5091510;28;20063;-22
2021/08/16 11:19:14;;;;;;;6.07;3.50;;;;;;;36.37;17.74;99948.41;5072910;28;20032;-22